Time;durP1;ratioP1;P1;durP2;ratioP2;P2;SDS_P1;SDS_P2;PMS_P1;PMS_P2;Temp;Humidity;BMP_temperature;BMP_pressure;BME280_temperature;BME280_humidity;BME280_pressure;Samples;Min_cycle;Max_cycle;Signal;HPM_P1;HPM_P2
2022/08/06 00:01:42;;;;;;;14.15;10.52;;;19.80;99.90;;;;;;5095432;28;20016;-76
2022/08/06 00:04:08;;;;;;;11.50;10.30;;;19.80;99.90;;;;;;5095514;28;20023;-76
2022/08/06 00:06:33;;;;;;;12.00;10.07;;;19.70;99.90;;;;;;5095377;28;20390;-74
2022/08/06 00:08:59;;;;;;;10.35;9.32;;;19.70;99.90;;;;;;5095461;28;20020;-74
2022/08/06 00:11:24;;;;;;;11.07;9.82;;;19.60;99.90;;;;;;5095449;28;20504;-73
2022/08/06 00:13:50;;;;;;;10.13;9.20;;;19.60;99.90;;;;;;5095161;28;20081;-73
2022/08/06 00:16:16;;;;;;;10.13;9.23;;;19.60;99.90;;;;;;5095076;28;20119;-76
2022/08/06 00:18:41;;;;;;;11.23;10.15;;;19.50;99.90;;;;;;5095044;28;20107;-72
2022/08/06 00:21:07;;;;;;;11.68;10.52;;;19.50;99.90;;;;;;5095222;28;20023;-76
2022/08/06 00:23:32;;;;;;;11.85;10.65;;;19.50;99.90;;;;;;5095043;28;20077;-76
2022/08/06 00:25:58;;;;;;;11.63;10.50;;;19.50;99.90;;;;;;5093769;28;20016;-74
2022/08/06 00:28:25;;;;;;;11.70;10.32;;;19.40;99.90;;;;;;5094883;28;20051;-73
2022/08/06 00:30:51;;;;;;;11.85;9.57;;;19.40;99.90;;;;;;5094952;28;20078;-73
2022/08/06 00:33:16;;;;;;;11.32;9.27;;;19.40;99.90;;;;;;5094806;28;20040;-73
2022/08/06 00:35:43;;;;;;;12.70;10.10;;;19.40;99.90;;;;;;5094890;28;20060;-75
2022/08/06 00:38:09;;;;;;;10.15;9.23;;;19.40;99.90;;;;;;5094665;28;20062;-73
2022/08/06 00:40:35;;;;;;;11.77;10.40;;;19.40;99.90;;;;;;5094903;28;20060;-76
2022/08/06 00:43:03;;;;;;;10.82;9.70;;;19.30;99.90;;;;;;5094598;28;20103;-73
2022/08/06 00:45:30;;;;;;;11.20;10.18;;;19.30;99.90;;;;;;5094671;28;20027;-73
2022/08/06 00:47:56;;;;;;;11.88;10.48;;;19.30;99.90;;;;;;5094305;28;20051;-73
2022/08/06 00:50:22;;;;;;;12.25;10.90;;;19.30;99.90;;;;;;5094588;28;20089;-76
2022/08/06 00:52:47;;;;;;;12.25;11.07;;;19.20;99.90;;;;;;5094447;28;20531;-73
2022/08/06 00:55:13;;;;;;;13.43;12.00;;;19.20;99.90;;;;;;5094545;28;20027;-76
2022/08/06 00:57:42;;;;;;;12.50;10.60;;;19.20;99.90;;;;;;5092994;28;20481;-75
2022/08/06 01:00:08;;;;;;;12.48;9.93;;;19.10;99.90;;;;;;5093842;28;20028;-76
2022/08/06 01:02:34;;;;;;;11.50;10.32;;;19.10;99.90;;;;;;5094204;28;20035;-76
2022/08/06 01:05:00;;;;;;;15.30;9.75;;;19.00;99.90;;;;;;5093007;28;20046;-75
2022/08/06 01:07:25;;;;;;;11.50;10.40;;;19.00;99.90;;;;;;5092895;28;20032;-75
2022/08/06 01:09:51;;;;;;;10.23;9.23;;;18.90;99.90;;;;;;5092946;28;20067;-76
2022/08/06 01:12:17;;;;;;;11.00;10.00;;;18.90;99.90;;;;;;5094117;28;20045;-73
2022/08/06 01:14:43;;;;;;;10.90;9.90;;;18.90;99.90;;;;;;5092863;28;20051;-73
2022/08/06 01:17:19;;;;;;;15.00;11.10;;;18.90;99.90;;;;;;5094026;28;20024;-76
2022/08/06 01:20:07;;;;;;;10.65;9.73;;;18.90;99.90;;;;;;5093968;28;20050;-76
2022/08/06 01:22:47;;;;;;;11.40;10.20;;;18.90;99.90;;;;;;5073759;28;20036;-76
2022/08/06 01:25:36;;;;;;;11.77;10.70;;;18.80;99.90;;;;;;5073773;28;20028;-76
2022/08/06 01:28:09;;;;;;;13.10;11.00;;;18.70;99.90;;;;;;5073422;28;20502;-73
2022/08/06 01:30:42;;;;;;;11.55;10.45;;;18.60;99.90;;;;;;5073297;28;20036;-73
2022/08/06 01:33:14;;;;;;;11.98;10.73;;;18.50;99.90;;;;;;5073434;28;20024;-76
2022/08/06 01:35:44;;;;;;;11.85;10.73;;;18.30;99.90;;;;;;5073429;28;20043;-73
2022/08/06 01:38:27;;;;;;;13.23;10.80;;;18.20;99.90;;;;;;5073206;28;20478;-76
2022/08/06 01:40:54;;;;;;;;;;;18.10;99.90;;;;;;5073855;28;20566;-73
2022/08/06 01:43:22;;;;;;;12.73;11.45;;;18.00;99.90;;;;;;5086649;28;19958;-76
2022/08/06 01:45:51;;;;;;;13.00;11.65;;;18.10;99.90;;;;;;5092312;28;20434;-73
2022/08/06 01:48:20;;;;;;;14.30;11.20;;;18.10;99.90;;;;;;5093323;28;20679;-76
2022/08/06 01:50:49;;;;;;;13.02;11.02;;;18.10;99.90;;;;;;5093631;28;20485;-73
2022/08/06 01:53:25;;;;;;;11.18;10.18;;;18.10;99.90;;;;;;5092113;28;20016;-76
2022/08/06 01:55:55;;;;;;;11.60;10.40;;;18.10;99.90;;;;;;5093432;28;20050;-73
2022/08/06 01:58:34;;;;;;;11.52;9.95;;;18.00;99.90;;;;;;5093275;28;20023;-76
2022/08/06 02:01:03;;;;;;;10.65;9.70;;;18.10;99.90;;;;;;5093835;28;20031;-73
2022/08/06 02:03:52;;;;;;;12.98;11.50;;;18.10;99.90;;;;;;5093018;28;20042;-76
2022/08/06 02:06:33;;;;;;;12.75;11.55;;;18.10;99.90;;;;;;5091922;28;20020;-73
2022/08/06 02:09:04;;;;;;;12.02;10.57;;;18.00;99.90;;;;;;5093309;28;20058;-73
2022/08/06 02:11:32;;;;;;;12.52;10.82;;;18.00;99.90;;;;;;5092497;28;20035;-73
2022/08/06 02:14:01;;;;;;;13.32;10.25;;;17.90;99.90;;;;;;5093052;28;20016;-73
2022/08/06 02:16:31;;;;;;;11.98;10.88;;;17.90;99.90;;;;;;5093154;28;20024;-76
2022/08/06 02:18:59;;;;;;;12.38;11.18;;;17.70;99.90;;;;;;5093140;28;20028;-77
2022/08/06 02:21:26;;;;;;;15.90;12.73;;;17.60;99.90;;;;;;5091928;28;20546;-76
2022/08/06 02:23:52;;;;;;;15.25;13.15;;;17.60;99.90;;;;;;5092963;28;20028;-76
2022/08/06 02:26:21;;;;;;;13.20;12.00;;;17.60;99.90;;;;;;5092988;28;20448;-76
2022/08/06 02:28:50;;;;;;;12.75;11.38;;;17.60;99.90;;;;;;5091703;28;20035;-73
2022/08/06 02:31:16;;;;;;;15.02;11.40;;;17.60;99.90;;;;;;5091784;28;20032;-74
2022/08/06 02:33:42;;;;;;;12.43;11.25;;;17.60;99.90;;;;;;5092981;28;20027;-76
2022/08/06 02:36:32;;;;;;;14.75;12.05;;;17.60;99.90;;;;;;5091591;28;20025;-76
2022/08/06 02:39:07;;;;;;;12.20;11.00;;;17.60;99.90;;;;;;5087382;28;20539;-76
2022/08/06 02:41:49;;;;;;;12.90;11.57;;;17.60;99.90;;;;;;5093023;28;20473;-76
2022/08/06 02:44:26;;;;;;;12.75;11.45;;;17.60;99.90;;;;;;5092845;28;20055;-73
2022/08/06 02:47:03;;;;;;;13.45;12.15;;;17.70;99.90;;;;;;5091556;28;20119;-76
2022/08/06 02:49:35;;;;;;;18.55;12.68;;;17.70;99.90;;;;;;5092866;28;20036;-73
2022/08/06 02:52:07;;;;;;;13.98;12.57;;;17.70;99.90;;;;;;5092880;28;20021;-73
2022/08/06 02:54:46;;;;;;;14.80;13.07;;;17.70;99.90;;;;;;5091510;28;20073;-74
2022/08/06 02:57:17;;;;;;;13.35;11.50;;;17.70;99.90;;;;;;5091463;28;20097;-76
2022/08/06 02:59:46;;;;;;;14.15;12.75;;;17.70;99.90;;;;;;5092736;28;20044;-76
2022/08/06 03:02:14;;;;;;;14.27;12.82;;;17.70;99.90;;;;;;5092671;28;20023;-73
2022/08/06 03:04:43;;;;;;;16.08;12.52;;;17.70;99.90;;;;;;5092698;28;20073;-73
2022/08/06 03:07:11;;;;;;;15.55;13.25;;;17.70;99.90;;;;;;5092634;28;20017;-73
2022/08/06 03:09:39;;;;;;;13.95;11.70;;;17.60;99.90;;;;;;5091222;28;20408;-76
2022/08/06 03:12:07;;;;;;;13.80;12.38;;;17.60;99.90;;;;;;5091608;28;20416;-76
2022/08/06 03:14:34;;;;;;;12.55;11.25;;;17.50;99.90;;;;;;5091244;28;20058;-76
2022/08/06 03:17:01;;;;;;;12.60;11.40;;;17.30;99.90;;;;;;5092524;28;20028;-76
2022/08/06 03:19:28;;;;;;;15.75;13.95;;;17.30;99.90;;;;;;5092548;28;20065;-74
2022/08/06 03:21:55;;;;;;;21.42;15.80;;;17.30;99.90;;;;;;5093056;28;20035;-73
2022/08/06 03:24:23;;;;;;;21.88;17.38;;;17.40;99.90;;;;;;5096175;28;20038;-76
2022/08/06 03:26:50;;;;;;;17.73;15.70;;;17.60;99.90;;;;;;5094914;28;20028;-76
2022/08/06 03:29:17;;;;;;;21.20;18.52;;;17.70;99.90;;;;;;5096209;28;20023;-74
2022/08/06 03:31:43;;;;;;;24.00;17.95;;;17.80;99.90;;;;;;5095874;28;20028;-76
2022/08/06 03:34:10;;;;;;;21.77;16.73;;;17.80;99.90;;;;;;5094744;28;20043;-73
2022/08/06 03:36:37;;;;;;;24.02;18.17;;;17.90;99.90;;;;;;5095959;28;20094;-76
2022/08/06 03:39:06;;;;;;;24.15;17.00;;;18.00;99.90;;;;;;5096029;28;20025;-74
2022/08/06 03:41:35;;;;;;;20.60;16.63;;;18.00;99.90;;;;;;5095816;28;20406;-73
2022/08/06 03:44:02;;;;;;;27.02;17.90;;;18.20;99.90;;;;;;5095826;28;20478;-76
2022/08/06 03:46:51;;;;;;;20.63;16.38;;;18.40;99.90;;;;;;5094551;28;20023;-76
2022/08/06 03:49:41;;;;;;;26.08;17.45;;;18.50;99.90;;;;;;5095593;28;20127;-73
2022/08/06 03:52:08;;;;;;;21.83;17.58;;;18.70;99.90;;;;;;5095765;28;20375;-73
2022/08/06 03:54:37;;;;;;;21.48;17.55;;;18.80;99.90;;;;;;5095747;28;20027;-74
2022/08/06 03:57:08;;;;;;;20.50;17.20;;;19.00;99.90;;;;;;5095756;28;20107;-75
2022/08/06 03:59:36;;;;;;;19.80;16.23;;;19.10;99.90;;;;;;5095738;28;20378;-73
2022/08/06 04:02:03;;;;;;;20.08;16.45;;;19.20;99.90;;;;;;5095428;28;20066;-75
2022/08/06 04:04:30;;;;;;;19.13;14.40;;;19.40;99.90;;;;;;5095540;28;20024;-75
2022/08/06 04:06:57;;;;;;;15.90;13.35;;;19.40;99.90;;;;;;5095345;28;20103;-74
2022/08/06 04:09:25;;;;;;;15.30;13.32;;;19.50;99.90;;;;;;5095451;28;20012;-74
2022/08/06 04:11:52;;;;;;;15.43;13.07;;;19.50;99.90;;;;;;5093989;28;20035;-75
2022/08/06 04:14:18;;;;;;;17.02;13.50;;;19.60;99.90;;;;;;5095333;28;20481;-76
2022/08/06 04:16:45;;;;;;;15.48;13.48;;;19.70;99.90;;;;;;5093750;28;20389;-75
2022/08/06 04:19:12;;;;;;;14.27;12.77;;;19.70;99.90;;;;;;5095354;28;20024;-74
2022/08/06 04:21:38;;;;;;;14.38;12.43;;;19.80;99.90;;;;;;5095124;28;20024;-75
2022/08/06 04:24:04;;;;;;;13.23;11.05;;;19.80;99.90;;;;;;5095163;28;20020;-74
2022/08/06 04:26:31;;;;;;;15.43;11.68;;;19.90;99.90;;;;;;5093678;28;20032;-75
2022/08/06 04:29:01;;;;;;;12.30;10.85;;;19.80;99.90;;;;;;5095069;28;20020;-74
2022/08/06 04:31:29;;;;;;;13.02;11.73;;;19.80;99.90;;;;;;5094924;28;20024;-75
2022/08/06 04:33:56;;;;;;;13.02;11.07;;;19.80;99.90;;;;;;5092833;28;20130;-74
2022/08/06 04:36:21;;;;;;;13.15;10.85;;;19.80;99.90;;;;;;5093457;28;20474;-74
2022/08/06 04:38:48;;;;;;;13.20;11.73;;;19.90;99.90;;;;;;5094931;28;20147;-75
2022/08/06 04:41:14;;;;;;;16.60;11.23;;;19.90;99.90;;;;;;5094728;28;20048;-76
2022/08/06 04:43:40;;;;;;;13.25;11.65;;;19.90;99.90;;;;;;5094699;28;20101;-75
2022/08/06 04:46:07;;;;;;;13.82;10.13;;;20.00;99.90;;;;;;5094469;28;20024;-74
2022/08/06 04:48:34;;;;;;;12.52;11.18;;;20.10;99.90;;;;;;5094600;28;20075;-76
2022/08/06 04:51:02;;;;;;;11.73;10.52;;;20.20;99.90;;;;;;5093204;28;20492;-76
2022/08/06 04:53:37;;;;;;;11.95;10.70;;;20.20;99.90;;;;;;5094596;28;20491;-74
2022/08/06 04:56:03;;;;;;;12.05;9.75;;;20.20;99.90;;;;;;5093183;28;20606;-73
2022/08/06 04:58:28;;;;;;;12.85;10.50;;;20.20;99.90;;;;;;5094401;28;20032;-73
2022/08/06 05:00:54;;;;;;;12.60;10.35;;;20.30;99.90;;;;;;5094415;28;20032;-73
2022/08/06 05:03:19;;;;;;;11.35;10.18;;;20.40;99.90;;;;;;5094368;28;20024;-73
2022/08/06 05:05:54;;;;;;;13.18;11.02;;;20.50;99.90;;;;;;5092804;28;20031;-75
2022/08/06 05:08:22;;;;;;;13.15;10.65;;;20.60;99.90;;;;;;5092962;28;20421;-76
2022/08/06 05:11:00;;;;;;;14.68;10.90;;;20.70;99.90;;;;;;5093846;28;20036;-75
2022/08/06 05:13:33;;;;;;;11.05;9.95;;;20.80;99.90;;;;;;5094182;28;20024;-76
2022/08/06 05:16:03;;;;;;;11.13;10.07;;;21.00;99.90;;;;;;5093757;28;20073;-75
2022/08/06 05:18:35;;;;;;;10.60;9.63;;;21.00;99.90;;;;;;5094310;28;20115;-75
2022/08/06 05:21:02;;;;;;;11.20;10.20;;;21.30;99.90;;;;;;5094052;28;20474;-76
2022/08/06 05:23:44;;;;;;;9.85;8.68;;;21.40;99.90;;;;;;5093893;28;20090;-75
2022/08/06 05:26:11;;;;;;;11.43;8.23;;;21.60;99.90;;;;;;5093701;28;20036;-75
2022/08/06 05:28:41;;;;;;;9.18;8.30;;;21.60;99.90;;;;;;5093844;28;20043;-75
2022/08/06 05:31:07;;;;;;;9.25;8.00;;;21.70;99.90;;;;;;5093803;28;20047;-74
2022/08/06 05:33:38;;;;;;;8.60;7.70;;;21.60;99.90;;;;;;5092313;28;20031;-75
2022/08/06 05:36:06;;;;;;;8.50;7.75;;;21.70;99.90;;;;;;5093578;28;20028;-75
2022/08/06 05:38:37;;;;;;;8.00;7.20;;;21.70;99.90;;;;;;5092122;28;20039;-75
2022/08/06 05:41:07;;;;;;;8.52;7.65;;;21.60;99.90;;;;;;5093791;28;20022;-75
2022/08/06 05:43:33;;;;;;;7.85;7.05;;;21.40;99.90;;;;;;5093356;28;20351;-75
2022/08/06 05:46:03;;;;;;;10.43;7.57;;;21.50;99.90;;;;;;5093278;28;20023;-75
2022/08/06 05:48:32;;;;;;;8.18;7.30;;;21.40;99.90;;;;;;5093198;28;20126;-75
2022/08/06 05:51:04;;;;;;;7.65;7.03;;;21.20;99.90;;;;;;5093093;28;20074;-74
2022/08/06 05:53:42;;;;;;;8.68;7.78;;;21.40;99.90;;;;;;5092553;28;20024;-73
2022/08/06 05:56:17;;;;;;;7.60;6.90;;;21.40;99.90;;;;;;5091567;28;20367;-73
2022/08/06 05:58:51;;;;;;;10.75;8.13;;;21.20;99.90;;;;;;5073045;28;20399;-73
2022/08/06 06:01:17;;;;;;;8.07;7.35;;;21.30;99.90;;;;;;5075776;28;20056;-74
2022/08/06 06:03:44;;;;;;;9.10;8.27;;;21.30;99.90;;;;;;5092774;28;20035;-75
2022/08/06 06:06:11;;;;;;;11.45;8.55;;;21.40;99.90;;;;;;5092184;28;20385;-75
2022/08/06 06:08:38;;;;;;;9.13;8.15;;;21.40;99.90;;;;;;5092834;28;20039;-74
2022/08/06 06:11:07;;;;;;;12.60;8.40;;;21.20;99.90;;;;;;5092002;28;20066;-74
2022/08/06 06:13:33;;;;;;;11.23;8.70;;;21.20;99.90;;;;;;5092000;28;20034;-75
2022/08/06 06:16:09;;;;;;;8.90;8.00;;;21.20;99.90;;;;;;5092770;28;20020;-74
2022/08/06 06:19:00;;;;;;;9.63;8.52;;;21.20;99.90;;;;;;5093020;28;20024;-74
2022/08/06 06:21:55;;;;;;;10.43;9.18;;;21.10;99.90;;;;;;5088588;28;20063;-74
2022/08/06 06:24:20;;;;;;;8.73;7.85;;;21.00;99.90;;;;;;5084816;28;20036;-73
2022/08/06 06:26:50;;;;;;;8.88;8.05;;;21.10;99.90;;;;;;5091690;28;20020;-74
2022/08/06 06:29:34;;;;;;;9.45;8.55;;;21.00;99.90;;;;;;5092919;28;20430;-74
2022/08/06 06:32:27;;;;;;;10.77;8.15;;;21.00;99.90;;;;;;5092883;28;20044;-74
2022/08/06 06:35:15;;;;;;;11.43;7.60;;;21.00;99.90;;;;;;5092728;28;20470;-73
2022/08/06 06:37:57;;;;;;;8.73;7.63;;;21.00;99.90;;;;;;5092832;28;20038;-73
2022/08/06 06:40:23;;;;;;;;;;;20.90;99.90;;;;;;5089409;28;20028;-74
2022/08/06 06:42:58;;;;;;;7.70;6.95;;;20.90;99.90;;;;;;5092510;28;19911;-73
2022/08/06 06:45:56;;;;;;;8.80;7.13;;;21.00;99.90;;;;;;5092864;28;20056;-73
2022/08/06 06:48:42;;;;;;;7.63;6.90;;;21.10;99.90;;;;;;5083519;28;20198;-73
2022/08/06 06:51:11;;;;;;;9.77;7.35;;;21.10;99.90;;;;;;5092711;28;20077;-74
2022/08/06 06:53:41;;;;;;;8.18;7.38;;;21.20;99.90;;;;;;5091404;28;20016;-73
2022/08/06 06:56:08;;;;;;;9.57;7.38;;;21.20;99.90;;;;;;5091437;28;20020;-74
2022/08/06 06:58:52;;;;;;;8.73;7.57;;;21.30;99.90;;;;;;5095927;28;20043;-73
2022/08/06 07:01:19;;;;;;;7.35;6.00;;;21.20;99.90;;;;;;5095486;28;20035;-73
2022/08/06 07:03:47;;;;;;;7.50;6.65;;;21.00;99.90;;;;;;5096515;28;20027;-74
2022/08/06 07:06:14;;;;;;;7.32;6.53;;;21.10;99.90;;;;;;5093904;28;20032;-73
2022/08/06 07:08:44;;;;;;;7.78;6.40;;;21.30;99.90;;;;;;5095545;28;20016;-73
2022/08/06 07:11:15;;;;;;;6.82;6.22;;;21.40;99.90;;;;;;5095036;28;20546;-73
2022/08/06 07:13:42;;;;;;;7.03;6.05;;;21.70;99.90;;;;;;5090583;28;20142;-73
2022/08/06 07:16:10;;;;;;;6.63;5.78;;;22.00;99.90;;;;;;5094492;28;20034;-73
2022/08/06 07:18:36;;;;;;;7.95;6.10;;;21.90;99.90;;;;;;5092037;28;20066;-73
2022/08/06 07:21:03;;;;;;;6.90;6.30;;;21.90;99.90;;;;;;5092665;28;20056;-73
2022/08/06 07:23:29;;;;;;;6.78;6.20;;;22.20;99.90;;;;;;5093375;28;20816;-73
2022/08/06 07:25:56;;;;;;;7.22;6.28;;;22.30;99.90;;;;;;5092170;28;20414;-74
2022/08/06 07:28:26;;;;;;;9.90;5.45;;;21.80;99.90;;;;;;5092841;28;20531;-73
2022/08/06 07:30:53;;;;;;;6.85;6.13;;;21.70;99.90;;;;;;5092077;28;20040;-73
2022/08/06 07:33:19;;;;;;;6.25;5.70;;;21.50;99.90;;;;;;5093218;28;20071;-73
2022/08/06 07:35:50;;;;;;;6.50;5.90;;;21.40;99.90;;;;;;5093092;28;20019;-74
2022/08/06 07:38:18;;;;;;;6.45;5.82;;;21.40;99.90;;;;;;5094510;28;20040;-73
2022/08/06 07:41:01;;;;;;;5.57;5.18;;;21.50;99.90;;;;;;5093129;28;20027;-73
2022/08/06 07:43:31;;;;;;;;;;;21.50;99.90;;;;;;5093467;28;20020;-74
2022/08/06 07:46:01;;;;;;;6.65;6.05;;;21.40;99.90;;;;;;5091836;28;19904;-73
2022/08/06 07:48:51;;;;;;;6.45;5.85;;;21.30;99.90;;;;;;5093829;28;20040;-74
2022/08/06 07:51:18;;;;;;;13.80;8.70;;;21.40;99.90;;;;;;5091154;28;20035;-73
2022/08/06 07:53:45;;;;;;;6.30;5.00;;;21.20;99.90;;;;;;5094358;28;20449;-74
2022/08/06 07:56:11;;;;;;;11.20;7.13;;;21.30;99.90;;;;;;5092887;28;20032;-74
2022/08/06 07:58:38;;;;;;;9.93;6.75;;;21.20;99.90;;;;;;5093545;28;20024;-74
2022/08/06 08:01:05;;;;;;;8.45;5.60;;;21.30;99.90;;;;;;5095629;28;20112;-74
2022/08/06 08:06:21;;;;;;;4.82;4.40;;;21.40;99.90;;;;;;5095641;28;20074;-74
2022/08/06 08:08:53;;;;;;;11.90;7.15;;;21.40;99.90;;;;;;5093923;28;20039;-74
2022/08/06 08:11:21;;;;;;;7.30;5.63;;;21.40;99.90;;;;;;5094380;28;20485;-74
2022/08/06 08:13:46;;;;;;;13.57;8.10;;;21.40;99.90;;;;;;5095199;28;20030;-74
2022/08/06 08:16:14;;;;;;;3.63;3.40;;;21.50;99.90;;;;;;5094011;28;20123;-73
2022/08/06 08:18:40;;;;;;;4.75;3.20;;;21.40;99.90;;;;;;5095077;28;20030;-74
2022/08/06 08:21:08;;;;;;;4.38;2.80;;;21.40;99.90;;;;;;5095163;28;20021;-73
2022/08/06 08:23:34;;;;;;;2.55;2.35;;;21.10;99.90;;;;;;5095083;28;20108;-73
2022/08/06 08:26:02;;;;;;;3.15;2.90;;;21.10;99.90;;;;;;5095009;28;20039;-73
2022/08/06 08:28:29;;;;;;;3.72;2.75;;;21.00;99.90;;;;;;5094925;28;20397;-73
2022/08/06 08:30:58;;;;;;;3.95;3.08;;;21.00;99.90;;;;;;5094725;28;20054;-73
2022/08/06 08:33:25;;;;;;;3.22;2.92;;;21.00;99.90;;;;;;5094828;28;20021;-73
2022/08/06 08:35:51;;;;;;;2.60;2.40;;;20.90;99.90;;;;;;5093410;28;20119;-73
2022/08/06 08:38:17;;;;;;;4.80;3.83;;;20.90;99.90;;;;;;5094818;28;20020;-73
2022/08/06 08:40:43;;;;;;;3.00;2.70;;;21.00;99.90;;;;;;5094567;28;20024;-73
2022/08/06 08:43:12;;;;;;;2.97;2.78;;;21.00;99.90;;;;;;5094636;28;20028;-72
2022/08/06 08:45:42;;;;;;;4.43;3.63;;;20.70;99.90;;;;;;5093334;28;20008;-72
2022/08/06 08:48:12;;;;;;;3.65;3.30;;;20.70;99.90;;;;;;5094419;28;20044;-73
2022/08/06 08:50:40;;;;;;;5.95;3.42;;;20.70;99.90;;;;;;5094340;28;20032;-73
2022/08/06 08:53:11;;;;;;;3.92;3.40;;;20.80;99.90;;;;;;5094243;28;20091;-73
2022/08/06 08:55:37;;;;;;;3.40;3.20;;;20.60;99.90;;;;;;5094504;28;20027;-73
2022/08/06 08:58:03;;;;;;;3.25;3.05;;;20.50;99.90;;;;;;5094469;28;20032;-73
2022/08/06 09:00:28;;;;;;;2.67;2.47;;;20.40;99.90;;;;;;5094546;28;20420;-73
2022/08/06 09:02:55;;;;;;;3.05;2.70;;;20.30;99.90;;;;;;5094233;28;20386;-73
2022/08/06 09:05:21;;;;;;;3.00;2.80;;;20.30;99.90;;;;;;5093982;28;20043;-74
2022/08/06 09:07:48;;;;;;;3.25;2.95;;;20.30;99.90;;;;;;5092425;28;20016;-73
2022/08/06 09:10:14;;;;;;;3.50;3.20;;;20.20;99.90;;;;;;5090997;28;20500;-73
2022/08/06 09:12:40;;;;;;;3.25;2.97;;;20.10;99.90;;;;;;5078802;28;20067;-74
2022/08/06 09:15:06;;;;;;;3.03;2.80;;;19.90;99.90;;;;;;5077167;28;20020;-73
2022/08/06 09:17:32;;;;;;;4.00;3.42;;;19.90;99.90;;;;;;5093845;28;20035;-73
2022/08/06 09:19:57;;;;;;;3.17;2.90;;;19.90;99.90;;;;;;5093211;28;20024;-75
2022/08/06 09:22:23;;;;;;;3.47;3.17;;;19.90;99.90;;;;;;5093733;28;20081;-74
2022/08/06 09:24:49;;;;;;;3.45;3.15;;;19.80;99.90;;;;;;5093164;28;20113;-74
2022/08/06 09:27:16;;;;;;;4.28;3.00;;;19.80;99.90;;;;;;5092125;28;20027;-73
2022/08/06 09:29:56;;;;;;;4.47;3.55;;;19.60;99.90;;;;;;5090050;28;20048;-74
2022/08/06 09:32:40;;;;;;;5.65;4.38;;;19.50;99.90;;;;;;5093739;28;20024;-73
2022/08/06 09:35:24;;;;;;;5.00;4.50;;;19.30;99.90;;;;;;5091857;28;20035;-74
2022/08/06 09:37:59;;;;;;;5.50;5.00;;;19.20;99.90;;;;;;5093324;28;20107;-73
2022/08/06 09:40:28;;;;;;;6.38;5.18;;;19.10;99.90;;;;;;5092990;28;20515;-73
2022/08/06 09:42:53;;;;;;;6.45;4.28;;;19.10;99.90;;;;;;5093045;28;20028;-73
2022/08/06 09:45:21;;;;;;;4.90;4.00;;;19.10;99.90;;;;;;5093306;28;20462;-75
2022/08/06 09:47:59;;;;;;;6.60;4.38;;;19.00;99.90;;;;;;5092954;28;20093;-73
2022/08/06 09:50:40;;;;;;;5.50;4.88;;;18.90;99.90;;;;;;5093195;28;20078;-73
2022/08/06 09:53:05;;;;;;;4.40;3.97;;;18.90;99.90;;;;;;5093229;28;20020;-73
2022/08/06 09:55:32;;;;;;;4.82;4.28;;;18.80;99.90;;;;;;5092595;28;20129;-74
2022/08/06 09:57:59;;;;;;;5.10;3.10;;;18.80;99.90;;;;;;5092832;28;20105;-73
2022/08/06 10:00:30;;;;;;;3.60;3.08;;;18.80;99.90;;;;;;5091073;28;20090;-74
2022/08/06 10:03:01;;;;;;;3.28;2.97;;;18.80;99.90;;;;;;5093208;28;20412;-73
2022/08/06 10:05:27;;;;;;;3.30;3.00;;;18.80;99.90;;;;;;5092895;28;20016;-74
2022/08/06 10:08:09;;;;;;;3.17;2.30;;;18.70;99.90;;;;;;5093021;28;20044;-74
2022/08/06 10:10:39;;;;;;;1.47;1.37;;;18.70;99.90;;;;;;5091106;28;20036;-74
2022/08/06 10:13:18;;;;;;;2.67;1.10;;;18.60;99.90;;;;;;5078898;28;20056;-75
2022/08/06 10:15:48;;;;;;;2.90;2.70;;;18.50;99.90;;;;;;5092623;28;20024;-73
2022/08/06 10:18:36;;;;;;;1.90;1.70;;;18.50;99.90;;;;;;5092826;28;20061;-74
2022/08/06 10:21:07;;;;;;;2.42;1.90;;;18.50;99.90;;;;;;5092625;28;20027;-73
2022/08/06 10:23:38;;;;;;;2.45;2.20;;;18.40;99.90;;;;;;5079724;28;20366;-73
2022/08/06 10:26:05;;;;;;;3.13;2.72;;;18.40;99.90;;;;;;5091028;28;20016;-74
2022/08/06 10:28:33;;;;;;;3.45;2.80;;;18.40;99.90;;;;;;5091566;28;20031;-74
2022/08/06 10:31:05;;;;;;;3.38;2.33;;;18.50;99.90;;;;;;5092519;28;20766;-74
2022/08/06 10:33:34;;;;;;;1.80;1.70;;;18.40;99.90;;;;;;5094578;28;20021;-73
2022/08/06 10:36:07;;;;;;;2.22;1.52;;;18.50;99.90;;;;;;5095571;28;20039;-74
2022/08/06 10:38:35;;;;;;;2.05;1.15;;;18.50;99.90;;;;;;5097781;28;20031;-73
2022/08/06 10:41:10;;;;;;;1.17;1.08;;;18.40;99.90;;;;;;5097210;28;20046;-73
2022/08/06 10:43:37;;;;;;;1.08;0.90;;;18.30;99.90;;;;;;5096087;28;20027;-74
2022/08/06 10:46:08;;;;;;;1.13;1.13;;;18.30;99.90;;;;;;5096706;28;20020;-74
2022/08/06 10:48:35;;;;;;;1.60;1.50;;;18.30;99.90;;;;;;5096818;28;20076;-74
2022/08/06 10:51:02;;;;;;;0.77;0.77;;;18.30;99.90;;;;;;5096491;28;20127;-73
2022/08/06 10:53:30;;;;;;;1.05;1.05;;;18.10;99.90;;;;;;5095645;28;20077;-75
2022/08/06 10:55:57;;;;;;;1.23;1.08;;;18.10;99.90;;;;;;5094832;28;20047;-75
2022/08/06 10:58:23;;;;;;;1.10;1.10;;;18.10;99.90;;;;;;5096405;28;20031;-75
2022/08/06 11:00:50;;;;;;;2.40;1.02;;;18.00;99.90;;;;;;5095266;28;20016;-73
2022/08/06 11:03:23;;;;;;;1.23;1.23;;;18.10;99.90;;;;;;5094996;28;20031;-75
2022/08/06 11:05:58;;;;;;;1.65;0.98;;;18.10;99.90;;;;;;5096576;28;20484;-73
2022/08/06 11:08:45;;;;;;;0.80;0.80;;;17.90;99.90;;;;;;5095160;28;20386;-74
2022/08/06 11:11:29;;;;;;;1.10;1.10;;;17.70;99.90;;;;;;5096508;28;20025;-74
2022/08/06 11:14:05;;;;;;;1.38;1.20;;;17.80;99.90;;;;;;5084043;28;20117;-73
2022/08/06 11:16:32;;;;;;;1.70;1.60;;;17.80;99.90;;;;;;5095003;28;20024;-73
2022/08/06 11:19:09;;;;;;;2.67;2.58;;;17.80;99.90;;;;;;5094641;28;20146;-74
2022/08/06 11:21:37;;;;;;;1.77;1.67;;;17.60;99.90;;;;;;5094690;28;20046;-74
2022/08/06 11:24:04;;;;;;;2.03;1.70;;;17.60;99.90;;;;;;5095645;28;20466;-74
2022/08/06 11:26:35;;;;;;;2.13;2.03;;;17.50;99.90;;;;;;5094598;28;20039;-74
2022/08/06 11:29:01;;;;;;;2.13;1.92;;;17.50;99.90;;;;;;5095952;28;20473;-74
2022/08/06 11:31:53;;;;;;;1.52;1.52;;;17.40;99.90;;;;;;5095814;28;20032;-75
2022/08/06 11:34:21;;;;;;;2.23;2.03;;;17.40;99.90;;;;;;5095694;28;20039;-74
2022/08/06 11:36:48;;;;;;;2.53;2.42;;;17.50;99.90;;;;;;5095764;28;20315;-74
2022/08/06 11:39:14;;;;;;;2.83;2.20;;;17.60;99.90;;;;;;5094908;28;20413;-74
2022/08/06 11:41:48;;;;;;;2.90;2.05;;;17.60;99.90;;;;;;5093989;28;20016;-76
2022/08/06 11:44:18;;;;;;;2.28;2.17;;;17.50;99.90;;;;;;5092450;28;20016;-75
2022/08/06 11:46:48;;;;;;;2.30;2.15;;;17.60;99.90;;;;;;5094971;28;20062;-74
2022/08/06 11:49:18;;;;;;;1.95;1.85;;;17.60;99.90;;;;;;5093873;28;20466;-75
2022/08/06 11:51:54;;;;;;;1.80;1.70;;;17.60;99.90;;;;;;5095108;28;20086;-74
2022/08/06 11:54:27;;;;;;;1.60;1.52;;;17.70;99.90;;;;;;5094510;28;20048;-75
2022/08/06 11:57:01;;;;;;;3.47;3.10;;;17.70;99.90;;;;;;5092315;28;20066;-75
2022/08/06 11:59:35;;;;;;;6.05;5.05;;;17.60;99.90;;;;;;5094891;28;20150;-75
2022/08/06 12:02:03;;;;;;;5.85;5.45;;;17.40;99.90;;;;;;5095316;28;20373;-76
2022/08/06 12:04:35;;;;;;;6.68;6.10;;;17.40;99.90;;;;;;5095253;28;20023;-75
2022/08/06 12:07:28;;;;;;;7.53;6.85;;;17.30;99.90;;;;;;5095200;28;20067;-76
2022/08/06 12:10:06;;;;;;;6.22;5.68;;;17.30;99.90;;;;;;5093430;28;20028;-76
2022/08/06 12:12:43;;;;;;;6.45;5.88;;;17.20;99.90;;;;;;5084970;28;20371;-76
2022/08/06 12:15:11;;;;;;;6.65;5.95;;;17.10;99.90;;;;;;5092118;28;20028;-76
2022/08/06 12:17:57;;;;;;;6.38;5.82;;;16.90;99.90;;;;;;5093770;28;20017;-75
2022/08/06 12:20:50;;;;;;;6.88;6.18;;;16.90;99.90;;;;;;5082735;28;20409;-75
2022/08/06 12:23:16;;;;;;;;;;;16.90;99.90;;;;;;5079586;28;20036;-75
2022/08/06 12:25:44;;;;;;;6.88;6.25;;;16.90;99.90;;;;;;5093778;28;19910;-75
2022/08/06 12:28:13;;;;;;;8.10;7.15;;;17.00;99.90;;;;;;5094775;28;20028;-74
2022/08/06 12:30:51;;;;;;;6.30;5.70;;;17.10;99.90;;;;;;5094847;28;20427;-76
2022/08/06 12:33:19;;;;;;;4.70;4.30;;;17.10;99.90;;;;;;5094334;28;20055;-75
2022/08/06 12:35:57;;;;;;;5.60;5.03;;;16.90;99.90;;;;;;5094729;28;20024;-76
2022/08/06 12:38:26;;;;;;;5.57;5.07;;;16.90;99.90;;;;;;5094171;28;20031;-75
2022/08/06 12:40:58;;;;;;;5.43;4.93;;;16.90;99.90;;;;;;5094500;28;20089;-76
2022/08/06 12:43:26;;;;;;;5.40;4.90;;;17.00;99.90;;;;;;5093184;28;20107;-76
2022/08/06 12:45:59;;;;;;;5.50;4.97;;;17.10;99.90;;;;;;5094434;28;20028;-75
2022/08/06 12:48:25;;;;;;;5.32;4.78;;;17.00;99.90;;;;;;5094266;28;20131;-76
2022/08/06 12:51:03;;;;;;;6.03;5.43;;;17.10;99.90;;;;;;5094245;28;20047;-74
2022/08/06 12:53:28;;;;;;;6.22;5.60;;;17.10;99.90;;;;;;5092641;28;20016;-73
2022/08/06 12:55:55;;;;;;;6.28;5.68;;;17.10;99.90;;;;;;5093680;28;20466;-74
2022/08/06 12:58:31;;;;;;;6.20;5.30;;;17.10;99.90;;;;;;5094300;28;20405;-76
2022/08/06 13:00:58;;;;;;;6.72;6.13;;;17.10;99.90;;;;;;5092917;28;20027;-75